Аэропорт: Богашево. Томск

ICAO: UNTT

METAR:
2021-07-28 13:00:00
UNTT 281300Z 19002MPS 9999 FEW046 20/10 Q1009 R21/090060 NOSIG RMK QFE742
METAR:
2021-07-28 11:00:00
TAF UNTT 281100Z 2812/2821 22003G08MPS 9999 SCT030CB PROB40 TEMPO 2812/2815 -TSRA